createdAt,value
2023-05-15T00:00:15.849Z,101456.72
2023-05-15T00:02:46.160Z,101454.97
2023-05-15T00:05:18.574Z,101458.47
2023-05-15T00:07:49.825Z,101462.88
2023-05-15T00:10:19.425Z,101468.13
2023-05-15T00:12:50.017Z,101469.00
2023-05-15T00:15:24.825Z,101466.38
2023-05-15T00:17:56.616Z,101460.22
2023-05-15T00:20:33.313Z,101457.59
2023-05-15T00:23:05.473Z,101452.31
2023-05-15T00:25:34.908Z,101440.06
2023-05-15T00:28:09.609Z,101443.56
2023-05-15T00:30:39.911Z,101443.56
2023-05-15T00:33:11.074Z,101437.44
2023-05-15T00:35:42.414Z,101440.94
2023-05-15T00:38:14.427Z,101447.09
2023-05-15T00:41:07.312Z,101445.34
2023-05-15T00:44:06.832Z,101442.69
2023-05-15T00:47:01.687Z,101437.41
2023-05-15T00:49:59.756Z,101438.28
2023-05-15T00:53:00.537Z,101435.66
2023-05-15T00:55:54.302Z,101430.38
2023-05-15T00:58:52.337Z,101436.53
2023-05-15T01:01:49.351Z,101433.00
2023-05-15T01:04:43.419Z,101439.19
2023-05-15T01:07:42.954Z,101446.19
2023-05-15T01:10:28.534Z,101440.03
2023-05-15T01:13:15.331Z,101445.31
2023-05-15T01:16:11.377Z,101447.06
2023-05-15T01:18:49.218Z,101442.66
2023-05-15T01:22:30.692Z,101438.25
2023-05-15T01:25:54.851Z,101445.22
2023-05-15T01:28:38.040Z,101431.22
2023-05-15T01:31:22.048Z,101433.81
2023-05-15T01:34:01.950Z,101425.06
2023-05-15T01:36:40.164Z,101438.22
2023-05-15T01:39:17.442Z,101439.09
2023-05-15T01:42:14.926Z,101435.59
2023-05-15T01:45:35.091Z,101439.09
2023-05-15T01:48:12.607Z,101441.69
2023-05-15T01:50:51.202Z,101435.56
2023-05-15T01:53:30.282Z,101434.69
2023-05-15T01:56:09.567Z,101438.22
2023-05-15T01:58:40.169Z,101425.03
2023-05-15T02:01:31.618Z,101425.06
2023-05-15T02:04:04.991Z,101429.41
2023-05-15T02:06:58.697Z,101441.69
2023-05-15T02:10:04.101Z,101437.31
2023-05-15T02:13:06.014Z,101434.69
2023-05-15T02:15:40.605Z,101438.19
2023-05-15T02:18:43.531Z,101428.53
2023-05-15T02:21:26.158Z,101422.41
2023-05-15T02:24:16.835Z,101428.56
2023-05-15T02:27:31.555Z,101427.69
2023-05-15T02:30:38.454Z,101418.94
2023-05-15T02:33:42.023Z,101427.72
2023-05-15T02:36:32.744Z,101411.03
2023-05-15T02:39:18.730Z,101422.44
2023-05-15T02:42:08.787Z,101416.31
2023-05-15T02:44:46.839Z,101406.66
2023-05-15T02:47:26.737Z,101409.28
2023-05-15T02:50:12.160Z,101408.41
2023-05-15T02:52:41.696Z,101397.88
2023-05-15T02:55:15.913Z,101403.13
2023-05-15T02:57:46.428Z,101397.88
2023-05-15T03:00:18.735Z,101400.50
2023-05-15T03:02:51.404Z,101392.59
2023-05-15T03:05:26.902Z,101394.34
2023-05-15T03:08:00.586Z,101399.59
2023-05-15T03:10:38.611Z,101407.47
2023-05-15T03:13:09.435Z,101402.19
2023-05-15T03:15:41.247Z,101393.44
2023-05-15T03:18:11.783Z,101387.31
2023-05-15T03:20:44.186Z,101397.84
2023-05-15T03:23:17.087Z,101395.22
2023-05-15T03:25:49.846Z,101396.09
2023-05-15T03:28:37.803Z,101396.06
2023-05-15T03:31:15.522Z,101392.53
2023-05-15T03:34:03.103Z,101383.78
2023-05-15T03:37:04.993Z,101388.16
2023-05-15T03:40:03.439Z,101398.69
2023-05-15T03:42:54.461Z,101395.19
2023-05-15T03:46:07.179Z,101403.06
2023-05-15T03:48:59.627Z,101413.53
2023-05-15T03:52:10.782Z,101397.75
2023-05-15T03:55:09.867Z,101410.00
2023-05-15T03:58:03.278Z,101417.00
2023-05-15T04:04:06.896Z,101413.44
2023-05-15T04:07:03.402Z,101412.50
2023-05-15T04:13:22.356Z,101414.22
2023-05-15T04:15:55.845Z,101414.22
2023-05-15T04:18:28.146Z,101402.81
2023-05-15T04:21:00.317Z,101410.72
2023-05-15T04:23:34.907Z,101414.25
2023-05-15T04:26:08.197Z,101416.00
2023-05-15T04:28:40.269Z,101415.97
2023-05-15T04:31:13.659Z,101415.97
2023-05-15T04:33:43.256Z,101415.97
2023-05-15T04:36:13.338Z,101422.09
2023-05-15T04:38:43.192Z,101413.31
2023-05-15T04:41:17.204Z,101410.69
2023-05-15T04:43:46.980Z,101413.28
2023-05-15T04:46:23.723Z,101418.53
2023-05-15T04:48:56.755Z,101409.75
2023-05-15T04:51:36.638Z,101410.66
2023-05-15T04:54:08.218Z,101404.56
2023-05-15T04:56:44.352Z,101404.56
2023-05-15T04:59:16.328Z,101409.81
2023-05-15T05:01:46.457Z,101407.19
2023-05-15T05:04:21.776Z,101407.19
2023-05-15T05:06:53.705Z,101412.47
2023-05-15T05:09:45.470Z,101411.66
2023-05-15T05:12:17.213Z,101408.16
2023-05-15T05:14:47.012Z,101402.06
2023-05-15T05:17:17.261Z,101412.59
2023-05-15T05:19:48.030Z,101405.63
2023-05-15T05:22:18.461Z,101403.00
2023-05-15T05:24:59.992Z,101410.91
2023-05-15T05:27:33.376Z,101407.41
2023-05-15T05:30:03.542Z,101404.81
2023-05-15T05:32:33.553Z,101407.44
2023-05-15T05:35:04.759Z,101407.44
2023-05-15T05:37:34.661Z,101410.97
2023-05-15T05:40:18.047Z,101410.97
2023-05-15T05:42:50.222Z,101411.88
2023-05-15T05:45:22.049Z,101410.13
2023-05-15T05:47:55.852Z,101415.38
2023-05-15T05:50:27.177Z,101411.03
2023-05-15T05:52:59.680Z,101410.19
2023-05-15T05:55:32.359Z,101407.56
2023-05-15T05:58:14.578Z,101413.69
2023-05-15T06:00:48.479Z,101425.97
2023-05-15T06:03:18.681Z,101418.97
2023-05-15T06:05:49.002Z,101418.97
2023-05-15T06:08:27.937Z,101424.25
2023-05-15T06:11:17.380Z,101420.75
2023-05-15T06:13:48.314Z,101431.28
2023-05-15T06:16:19.021Z,101438.28
2023-05-15T06:18:51.003Z,101440.03
2023-05-15T06:21:23.100Z,101447.06
2023-05-15T06:23:56.875Z,101439.16
2023-05-15T06:26:30.284Z,101438.28
2023-05-15T06:29:03.877Z,101427.72
2023-05-15T06:31:34.602Z,101423.31
2023-05-15T06:34:18.245Z,101420.66
2023-05-15T06:36:48.556Z,101412.69
2023-05-15T06:39:21.290Z,101404.78
2023-05-15T06:41:50.186Z,101409.16
2023-05-15T06:44:29.997Z,101397.72
2023-05-15T06:47:01.936Z,101411.78
2023-05-15T06:49:34.638Z,101409.09
2023-05-15T06:52:06.720Z,101411.78
2023-05-15T06:54:43.999Z,101413.53
2023-05-15T06:57:17.943Z,101397.69
2023-05-15T06:59:48.948Z,101407.38
2023-05-15T07:02:21.856Z,101410.00
2023-05-15T07:04:54.810Z,101408.25
2023-05-15T07:07:28.478Z,101410.81
2023-05-15T07:09:59.777Z,101414.31
2023-05-15T07:12:41.787Z,101412.56
2023-05-15T07:15:18.892Z,101401.06
2023-05-15T07:17:50.201Z,101399.28
2023-05-15T07:20:23.810Z,101396.56
2023-05-15T07:23:00.722Z,101392.94
2023-05-15T07:25:34.774Z,101395.50
2023-05-15T07:28:04.128Z,101391.88
2023-05-15T07:30:44.718Z,101385.59
2023-05-15T07:33:16.530Z,101381.91
2023-05-15T07:35:48.318Z,101386.16
2023-05-15T07:38:18.917Z,101393.97
2023-05-15T07:40:49.339Z,101392.97
2023-05-15T07:43:23.294Z,101392.84
2023-05-15T07:45:54.985Z,101387.38
2023-05-15T07:48:36.488Z,101396.09
2023-05-15T07:51:08.058Z,101387.91
2023-05-15T07:53:46.281Z,101379.84
2023-05-15T07:56:19.241Z,101382.47
2023-05-15T07:59:02.026Z,101374.25
2023-05-15T08:01:38.645Z,101387.28
2023-05-15T08:04:20.889Z,101382.69
2023-05-15T08:06:53.936Z,101386.81
2023-05-15T08:09:33.626Z,101389.19
2023-05-15T08:12:25.904Z,101385.34
2023-05-15T08:14:57.862Z,101383.44
2023-05-15T08:17:30.230Z,101378.09
2023-05-15T08:20:02.973Z,101386.91
2023-05-15T08:22:34.624Z,101389.56
2023-05-15T08:25:07.504Z,101380.78
2023-05-15T08:27:38.169Z,101380.84
2023-05-15T08:30:13.216Z,101376.34
2023-05-15T08:32:49.528Z,101375.97
2023-05-15T08:35:30.530Z,101372.00
2023-05-15T08:38:04.145Z,101366.19
2023-05-15T08:40:39.232Z,101366.59
2023-05-15T08:43:22.114Z,101369.78
2023-05-15T08:45:58.019Z,101367.84
2023-05-15T08:48:37.466Z,101367.69
2023-05-15T08:51:12.381Z,101365.03
2023-05-15T08:53:48.712Z,101370.38
2023-05-15T08:56:22.693Z,101362.59
2023-05-15T08:58:54.922Z,101367.06
2023-05-15T09:01:27.511Z,101368.13
2023-05-15T09:04:01.386Z,101359.19
2023-05-15T09:06:30.721Z,101366.19
2023-05-15T09:09:04.350Z,101360.09
2023-05-15T09:11:38.962Z,101358.19
2023-05-15T09:14:09.480Z,101354.34
2023-05-15T09:16:47.257Z,101354.03
2023-05-15T09:19:24.050Z,101357.88
2023-05-15T09:21:53.759Z,101353.03
2023-05-15T09:24:38.429Z,101351.03
2023-05-15T09:27:11.850Z,101356.94
2023-05-15T09:29:44.710Z,101356.66
2023-05-15T09:32:16.565Z,101358.19
2023-05-15T09:34:49.179Z,101356.25
2023-05-15T09:37:34.408Z,101346.41
2023-05-15T09:40:11.791Z,101347.25
2023-05-15T09:42:54.007Z,101356.78
2023-05-15T09:45:35.915Z,101359.03
2023-05-15T09:48:13.126Z,101352.34
2023-05-15T09:50:47.392Z,101355.56
2023-05-15T09:53:21.503Z,101348.38
2023-05-15T09:55:52.683Z,101350.75
2023-05-15T09:58:33.144Z,101356.50
2023-05-15T10:01:05.027Z,101361.44
2023-05-15T10:03:35.046Z,101350.69
2023-05-15T10:06:09.981Z,101351.50
2023-05-15T10:08:43.413Z,101352.41
2023-05-15T10:11:17.156Z,101350.69
2023-05-15T10:13:49.156Z,101349.41
2023-05-15T10:16:26.021Z,101355.41
2023-05-15T10:18:58.803Z,101358.41
2023-05-15T10:21:35.167Z,101354.06
2023-05-15T10:24:07.905Z,101355.50
2023-05-15T10:27:00.408Z,101362.19
2023-05-15T10:29:33.292Z,101365.13
2023-05-15T10:32:15.599Z,101365.81
2023-05-15T10:34:46.632Z,101357.13
2023-05-15T10:37:28.968Z,101351.75
2023-05-15T10:40:08.182Z,101358.44
2023-05-15T10:42:41.352Z,101355.72
2023-05-15T10:45:13.181Z,101357.13
2023-05-15T10:47:52.791Z,101351.47
2023-05-15T10:50:27.652Z,101357.16
2023-05-15T10:53:02.618Z,101358.41
2023-05-15T10:55:44.871Z,101354.22
2023-05-15T10:58:15.920Z,101360.19
2023-05-15T11:00:47.658Z,101348.88
2023-05-15T11:03:34.872Z,101345.72
2023-05-15T11:06:14.412Z,101351.91
2023-05-15T11:08:49.180Z,101349.06
2023-05-15T11:11:58.234Z,101354.91
2023-05-15T11:14:37.185Z,101356.63
2023-05-15T11:17:16.560Z,101343.31
2023-05-15T11:20:04.356Z,101342.59
2023-05-15T11:22:37.626Z,101349.09
2023-05-15T11:25:14.752Z,101349.16
2023-05-15T11:27:55.066Z,101342.03
2023-05-15T11:30:38.887Z,101335.78
2023-05-15T11:33:14.079Z,101338.09
2023-05-15T11:35:48.828Z,101339.78
2023-05-15T11:38:23.337Z,101339.78
2023-05-15T11:41:03.661Z,101340.81
2023-05-15T11:43:35.427Z,101347.59
2023-05-15T11:46:09.615Z,101337.31
2023-05-15T11:48:41.800Z,101329.84
2023-05-15T11:51:27.724Z,101335.03
2023-05-15T11:54:03.481Z,101327.78
2023-05-15T11:56:35.195Z,101324.38
2023-05-15T11:59:05.970Z,101338.78
2023-05-15T12:01:50.128Z,101337.69
2023-05-15T12:04:26.761Z,101339.00
2023-05-15T12:07:03.297Z,101338.72
2023-05-15T12:09:35.568Z,101334.19
2023-05-15T12:12:09.944Z,101332.34
2023-05-15T12:14:52.723Z,101324.06
2023-05-15T12:17:26.177Z,101327.09
2023-05-15T12:20:00.874Z,101336.25
2023-05-15T12:22:31.040Z,101328.53
2023-05-15T12:25:04.258Z,101332.28
2023-05-15T12:27:37.844Z,101334.88
2023-05-15T12:30:11.236Z,101328.91
2023-05-15T12:32:47.475Z,101332.78
2023-05-15T12:35:25.568Z,101330.09
2023-05-15T12:38:06.885Z,101330.59
2023-05-15T12:40:38.279Z,101338.88
2023-05-15T12:43:10.251Z,101336.44
2023-05-15T12:45:44.900Z,101322.22
2023-05-15T12:48:17.264Z,101332.94
2023-05-15T12:51:06.516Z,101328.84
2023-05-15T12:53:40.256Z,101339.25
2023-05-15T12:56:12.829Z,101337.00
2023-05-15T12:58:43.139Z,101335.19
2023-05-15T13:01:25.480Z,101333.69
2023-05-15T13:03:56.823Z,101341.06
2023-05-15T13:06:45.729Z,101335.09
2023-05-15T13:09:29.374Z,101344.34
2023-05-15T13:12:00.712Z,101340.56
2023-05-15T13:14:38.482Z,101336.19
2023-05-15T13:17:10.172Z,101342.81
2023-05-15T13:19:41.718Z,101333.00
2023-05-15T13:22:12.184Z,101336.44
2023-05-15T13:24:46.281Z,101339.84
2023-05-15T13:27:34.535Z,101335.94
2023-05-15T13:30:09.065Z,101335.72
2023-05-15T13:32:38.823Z,101335.00
2023-05-15T13:35:13.321Z,101329.59
2023-05-15T13:37:43.481Z,101339.41
2023-05-15T13:40:15.576Z,101324.69
2023-05-15T13:42:46.738Z,101326.66
2023-05-15T13:45:20.160Z,101335.34
2023-05-15T13:47:53.771Z,101341.50
2023-05-15T13:50:32.138Z,101328.50
2023-05-15T13:53:01.540Z,101331.72
2023-05-15T13:55:35.706Z,101324.38
2023-05-15T13:58:06.352Z,101336.06
2023-05-15T14:00:40.445Z,101331.81
2023-05-15T14:03:18.416Z,101331.03
2023-05-15T14:05:49.208Z,101323.81
2023-05-15T14:08:20.339Z,101339.53
2023-05-15T14:10:51.475Z,101335.56
2023-05-15T14:13:23.831Z,101344.81
2023-05-15T14:15:59.753Z,101336.97
2023-05-15T14:18:31.806Z,101348.91
2023-05-15T14:21:02.714Z,101336.34
2023-05-15T14:23:34.638Z,101340.13
2023-05-15T14:26:06.820Z,101346.00
2023-05-15T14:28:36.629Z,101346.44
2023-05-15T14:31:22.075Z,101350.00
2023-05-15T14:33:54.433Z,101354.03
2023-05-15T14:36:28.658Z,101353.44
2023-05-15T14:39:00.423Z,101345.84
2023-05-15T14:41:31.219Z,101367.41
2023-05-15T14:44:02.258Z,101359.22
2023-05-15T14:46:34.136Z,101362.69
2023-05-15T14:49:13.225Z,101384.00
2023-05-15T14:51:45.927Z,101369.19
2023-05-15T14:54:17.240Z,101371.84
2023-05-15T14:56:54.393Z,101367.63
2023-05-15T14:59:33.621Z,101374.41
2023-05-15T15:02:07.224Z,101372.78
2023-05-15T15:04:38.776Z,101378.47
2023-05-15T15:07:14.277Z,101379.28
2023-05-15T15:09:45.831Z,101385.25
2023-05-15T15:12:39.081Z,101386.78
2023-05-15T15:15:15.084Z,101385.28
2023-05-15T15:18:17.328Z,101384.22
2023-05-15T15:20:47.659Z,101394.59
2023-05-15T15:23:23.142Z,101394.81
2023-05-15T15:25:59.499Z,101403.84
2023-05-15T15:28:41.866Z,101399.84
2023-05-15T15:31:13.039Z,101398.53
2023-05-15T15:33:47.752Z,101394.69
2023-05-15T15:36:17.830Z,101391.22
2023-05-15T15:39:08.646Z,101400.53
2023-05-15T15:41:45.651Z,101400.75
2023-05-15T15:44:16.891Z,101397.59
2023-05-15T15:47:03.463Z,101407.78
2023-05-15T15:49:37.851Z,101408.59
2023-05-15T15:52:14.101Z,101395.63
2023-05-15T15:54:47.379Z,101398.00
2023-05-15T15:57:35.357Z,101400.06
2023-05-15T16:00:11.376Z,101401.22
2023-05-15T16:02:44.369Z,101407.22
2023-05-15T16:05:30.273Z,101412.16
2023-05-15T16:08:02.230Z,101413.19
2023-05-15T16:10:33.110Z,101416.31
2023-05-15T16:13:12.736Z,101413.63
2023-05-15T16:15:41.861Z,101416.00
2023-05-15T16:18:28.844Z,101428.63
2023-05-15T16:21:09.446Z,101434.16
2023-05-15T16:23:40.563Z,101434.63
2023-05-15T16:26:15.673Z,101441.16
2023-05-15T16:28:47.783Z,101437.00
2023-05-15T16:31:21.354Z,101439.81
2023-05-15T16:33:53.181Z,101432.97
2023-05-15T16:36:32.363Z,101438.41
2023-05-15T16:39:15.576Z,101435.91
2023-05-15T16:41:50.615Z,101440.44
2023-05-15T16:44:21.803Z,101435.31
2023-05-15T16:46:54.151Z,101440.69
2023-05-15T16:49:31.558Z,101438.09
2023-05-15T16:52:04.794Z,101432.00
2023-05-15T16:54:42.373Z,101441.72
2023-05-15T16:57:14.586Z,101456.81
2023-05-15T16:59:45.367Z,101449.00
2023-05-15T17:02:18.743Z,101465.69
2023-05-15T17:04:48.333Z,101468.28
2023-05-15T17:07:23.239Z,101467.44
2023-05-15T17:09:56.001Z,101471.00
2023-05-15T17:12:31.987Z,101471.06
2023-05-15T17:15:13.932Z,101464.06
2023-05-15T17:17:46.783Z,101481.69
2023-05-15T17:20:20.448Z,101486.13
2023-05-15T17:22:57.153Z,101497.63
2023-05-15T17:25:36.150Z,101485.41
2023-05-15T17:28:08.051Z,101485.44
2023-05-15T17:30:38.857Z,101496.06
2023-05-15T17:33:12.434Z,101496.97
2023-05-15T17:35:42.283Z,101511.03
2023-05-15T17:38:13.385Z,101508.41
2023-05-15T17:40:44.949Z,101517.19
2023-05-15T17:43:15.141Z,101514.56
2023-05-15T17:45:46.408Z,101513.63
2023-05-15T17:48:17.730Z,101508.38
2023-05-15T17:50:47.935Z,101511.91
2023-05-15T17:53:31.602Z,101520.66
2023-05-15T17:56:03.591Z,101518.00
2023-05-15T17:58:33.236Z,101525.91
2023-05-15T18:01:11.214Z,101518.91
2023-05-15T18:03:46.200Z,101521.53
2023-05-15T18:06:15.890Z,101535.63
2023-05-15T18:08:49.209Z,101530.38
2023-05-15T18:11:22.381Z,101542.72
2023-05-15T18:13:58.411Z,101544.50
2023-05-15T18:16:31.447Z,101533.94
2023-05-15T18:19:06.279Z,101542.72
2023-05-15T18:21:37.819Z,101550.63
2023-05-15T18:24:15.240Z,101543.59
2023-05-15T18:26:56.835Z,101549.75
2023-05-15T18:29:31.126Z,101550.63
2023-05-15T18:32:05.599Z,101553.28
2023-05-15T18:34:37.857Z,101552.44
2023-05-15T18:37:07.583Z,101555.03
2023-05-15T18:39:42.332Z,101558.59
2023-05-15T18:42:18.629Z,101566.50
2023-05-15T18:44:49.593Z,101567.38
2023-05-15T18:47:26.403Z,101566.47
2023-05-15T18:49:57.688Z,101575.25
2023-05-15T18:52:29.771Z,101577.03
2023-05-15T18:55:01.709Z,101573.50
2023-05-15T18:57:31.373Z,101586.69
2023-05-15T19:00:00.991Z,101577.00
2023-05-15T19:02:33.642Z,101577.00
2023-05-15T19:05:07.279Z,101584.91
2023-05-15T19:07:37.284Z,101582.25
2023-05-15T19:10:20.410Z,101585.75
2023-05-15T19:12:49.498Z,101589.25
2023-05-15T19:15:19.812Z,101582.22
2023-05-15T19:17:49.975Z,101583.97
2023-05-15T19:20:25.063Z,101599.75
2023-05-15T19:22:57.622Z,101594.47
2023-05-15T19:25:31.686Z,101590.91
2023-05-15T19:28:04.874Z,101594.44
2023-05-15T19:30:36.225Z,101602.34
2023-05-15T19:33:06.437Z,101603.22
2023-05-15T19:35:42.320Z,101611.97
2023-05-15T19:38:13.391Z,101610.22
2023-05-15T19:40:49.349Z,101609.38
2023-05-15T19:43:22.913Z,101615.50
2023-05-15T19:45:52.411Z,101619.91
2023-05-15T19:48:22.335Z,101620.78
2023-05-15T19:50:56.147Z,101624.22
2023-05-15T19:53:31.206Z,101623.25
2023-05-15T19:56:01.671Z,101625.88
2023-05-15T19:58:32.906Z,101632.91
2023-05-15T20:01:07.265Z,101627.59
2023-05-15T20:03:37.262Z,101638.97
2023-05-15T20:06:09.941Z,101627.50
2023-05-15T20:08:43.625Z,101635.34
2023-05-15T20:11:16.384Z,101632.63
2023-05-15T20:13:48.962Z,101643.09
2023-05-15T20:16:27.580Z,101642.22
2023-05-15T20:19:03.400Z,101643.94
2023-05-15T20:21:36.884Z,101644.75
2023-05-15T20:24:19.363Z,101640.38
2023-05-15T20:26:53.274Z,101632.47
2023-05-15T20:29:32.657Z,101639.50
2023-05-15T20:32:08.863Z,101646.50
2023-05-15T20:34:43.253Z,101652.63
2023-05-15T20:37:17.307Z,101654.31
2023-05-15T20:39:53.374Z,101656.91
2023-05-15T20:42:29.768Z,101652.50
2023-05-15T20:45:00.493Z,101657.66
2023-05-15T20:47:30.030Z,101651.44
2023-05-15T20:49:59.493Z,101663.63
2023-05-15T20:52:31.907Z,101679.28
2023-05-15T20:55:01.845Z,101673.84
2023-05-15T20:57:38.230Z,101670.25
2023-05-15T21:00:10.472Z,101683.25
2023-05-15T21:02:41.283Z,101675.28
2023-05-15T21:05:12.910Z,101678.69
2023-05-15T21:07:43.593Z,101691.75
2023-05-15T21:10:17.525Z,101689.91
2023-05-15T21:12:51.920Z,101696.03
2023-05-15T21:15:27.125Z,101689.81
2023-05-15T21:17:58.198Z,101690.50
2023-05-15T21:20:31.944Z,101689.53
2023-05-15T21:23:03.755Z,101698.19
2023-05-15T21:25:37.152Z,101691.22
2023-05-15T21:28:07.941Z,101697.34
2023-05-15T21:30:37.780Z,101699.13
2023-05-15T21:33:14.737Z,101690.38
2023-05-15T21:35:44.523Z,101693.00
2023-05-15T21:38:20.491Z,101699.97
2023-05-15T21:40:51.209Z,101711.28
2023-05-15T21:43:26.061Z,101699.03
2023-05-15T21:45:59.190Z,101702.50
2023-05-15T21:48:31.945Z,101712.09
2023-05-15T21:51:02.171Z,101704.22
2023-05-15T21:53:36.401Z,101708.59
2023-05-15T21:56:09.563Z,101705.91
2023-05-15T21:58:41.543Z,101719.81
2023-05-15T22:01:12.394Z,101711.88
2023-05-15T22:03:41.686Z,101709.25
2023-05-15T22:06:14.300Z,101708.34
2023-05-15T22:08:44.273Z,101705.69
2023-05-15T22:11:18.389Z,101709.19
2023-05-15T22:13:49.468Z,101714.44
2023-05-15T22:16:26.904Z,101708.28
2023-05-15T22:18:57.849Z,101720.50
2023-05-15T22:21:29.408Z,101717.94
2023-05-15T22:24:00.659Z,101708.31
2023-05-15T22:26:34.112Z,101718.81
2023-05-15T22:29:07.336Z,101719.72
2023-05-15T22:31:41.992Z,101724.91
2023-05-15T22:34:12.968Z,101720.47
2023-05-15T22:36:46.046Z,101724.81
2023-05-15T22:39:18.178Z,101720.47
2023-05-15T22:41:48.443Z,101723.13
2023-05-15T22:44:19.529Z,101721.38
2023-05-15T22:46:54.392Z,101724.84
2023-05-15T22:49:33.871Z,101726.56
2023-05-15T22:52:04.630Z,101730.06
2023-05-15T22:54:35.290Z,101737.88
2023-05-15T22:57:06.109Z,101730.81
2023-05-15T22:59:41.259Z,101736.81
2023-05-15T23:02:10.928Z,101743.69
2023-05-15T23:04:45.957Z,101744.44
2023-05-15T23:07:17.643Z,101742.59
2023-05-15T23:09:51.414Z,101744.38
2023-05-15T23:12:22.204Z,101741.78
2023-05-15T23:14:54.745Z,101740.81
2023-05-15T23:17:27.108Z,101743.31
2023-05-15T23:20:01.562Z,101749.25
2023-05-15T23:22:32.454Z,101750.94
2023-05-15T23:25:04.377Z,101744.72
2023-05-15T23:27:34.416Z,101757.81
2023-05-15T23:30:06.998Z,101754.38
2023-05-15T23:32:39.586Z,101751.81
2023-05-15T23:35:11.279Z,101755.34
2023-05-15T23:37:40.528Z,101758.88
2023-05-15T23:40:12.135Z,101760.59
2023-05-15T23:42:41.177Z,101760.72
2023-05-15T23:45:19.684Z,101757.31
2023-05-15T23:47:49.456Z,101767.88
2023-05-15T23:50:21.965Z,101765.28
2023-05-15T23:52:51.847Z,101774.03
2023-05-15T23:55:23.020Z,101772.25
2023-05-15T23:57:53.442Z,101769.63
